Time;durP1;ratioP1;P1;durP2;ratioP2;P2;SDS_P1;SDS_P2;PMS_P1;PMS_P2;Temp;Humidity;BMP_temperature;BMP_pressure;BME280_temperature;BME280_humidity;BME280_pressure;Samples;Min_cycle;Max_cycle;Signal;HPM_P1;HPM_P2
2024/03/14 00:01:22;;;;;;;13.65;5.55;;;;;;;;;;5050744;28;20031;-49
2024/03/14 00:03:48;;;;;;;8.75;5.53;;;;;;;;;;5045284;28;20047;-50
2024/03/14 00:06:13;;;;;;;9.15;5.32;;;;;;;;;;5047214;28;20040;-52
2024/03/14 00:08:38;;;;;;;9.75;5.05;;;;;;;;;;5047226;28;20435;-48
2024/03/14 00:11:06;;;;;;;10.65;5.60;;;;;;;;;;5050115;28;20108;-50
2024/03/14 00:13:31;;;;;;;10.43;5.38;;;;;;;;;;5046564;28;20025;-50
2024/03/14 00:15:56;;;;;;;9.00;5.32;;;;;;;;;;5045881;28;20090;-47
2024/03/14 00:18:22;;;;;;;9.43;5.10;;;;;;;;;;5057168;28;20102;-51
2024/03/14 00:20:47;;;;;;;10.52;5.85;;;;;;;;;;5058640;28;20029;-52
2024/03/14 00:23:13;;;;;;;7.75;4.72;;;;;;;;;;5045421;28;20025;-49
2024/03/14 00:25:40;;;;;;;9.57;5.32;;;;;;;;;;5053924;28;20055;-50
2024/03/14 00:28:09;;;;;;;10.88;5.55;;;;;;;;;;5063795;28;20020;-50
2024/03/14 00:30:34;;;;;;;9.00;4.63;;;;;;;;;;5046076;28;20055;-52
2024/03/14 00:32:59;;;;;;;9.77;4.90;;;;;;;;;;5046097;28;20060;-50
2024/03/14 00:35:25;;;;;;;10.10;5.68;;;;;;;;;;5051241;28;20225;-48
2024/03/14 00:37:51;;;;;;;10.35;5.40;;;;;;;;;;5065878;28;20028;-50
2024/03/14 00:40:18;;;;;;;10.25;5.38;;;;;;;;;;5063919;28;20519;-51
2024/03/14 00:42:49;;;;;;;9.43;5.30;;;;;;;;;;5066047;28;20025;-49
2024/03/14 00:45:14;;;;;;;10.52;4.97;;;;;;;;;;5063842;28;20024;-49
2024/03/14 00:47:40;;;;;;;12.77;5.10;;;;;;;;;;5056239;28;20114;-48
2024/03/14 00:50:08;;;;;;;14.32;5.57;;;;;;;;;;5056141;28;20020;-47
2024/03/14 00:52:37;;;;;;;11.40;6.13;;;;;;;;;;5044529;28;20057;-50
2024/03/14 00:55:04;;;;;;;12.02;6.40;;;;;;;;;;5045974;28;20560;-48
2024/03/14 00:57:30;;;;;;;12.02;6.78;;;;;;;;;;5045778;28;20104;-50
2024/03/14 00:59:55;;;;;;;10.70;6.63;;;;;;;;;;5045789;28;20491;-51
2024/03/14 01:02:20;;;;;;;14.20;6.97;;;;;;;;;;5045404;28;20033;-49
2024/03/14 01:04:46;;;;;;;13.88;7.85;;;;;;;;;;5048597;28;20029;-50
2024/03/14 01:07:11;;;;;;;14.52;6.93;;;;;;;;;;5044928;28;20106;-51
2024/03/14 01:09:36;;;;;;;11.70;6.57;;;;;;;;;;5043989;28;20040;-47
2024/03/14 01:12:02;;;;;;;10.75;6.65;;;;;;;;;;5045863;28;20036;-51
2024/03/14 01:14:27;;;;;;;14.60;7.97;;;;;;;;;;5044940;28;20060;-53
2024/03/14 01:16:52;;;;;;;14.50;6.65;;;;;;;;;;5048558;28;20025;-47
2024/03/14 01:19:18;;;;;;;12.73;7.15;;;;;;;;;;5045141;28;20532;-50
2024/03/14 01:21:43;;;;;;;11.95;7.07;;;;;;;;;;5061457;28;20028;-50
2024/03/14 01:24:09;;;;;;;14.38;6.63;;;;;;;;;;5064806;28;20077;-50
2024/03/14 01:26:34;;;;;;;13.88;6.90;;;;;;;;;;5060560;28;20038;-48
2024/03/14 01:29:01;;;;;;;14.57;6.90;;;;;;;;;;5044727;28;20086;-48
2024/03/14 01:31:26;;;;;;;9.55;6.00;;;;;;;;;;5059700;28;20109;-49
2024/03/14 01:33:52;;;;;;;15.68;6.70;;;;;;;;;;5064779;28;20074;-50
2024/03/14 01:36:17;;;;;;;15.35;7.00;;;;;;;;;;5049464;28;20032;-49
2024/03/14 01:38:42;;;;;;;11.05;6.50;;;;;;;;;;5024870;28;20039;-47
2024/03/14 01:41:20;;;;;;;10.45;6.53;;;;;;;;;;5043895;28;20029;-49
2024/03/14 01:43:56;;;;;;;15.85;8.00;;;;;;;;;;5044288;28;20124;-52
2024/03/14 01:46:22;;;;;;;13.43;6.72;;;;;;;;;;5057626;28;20036;-50
2024/03/14 01:48:47;;;;;;;12.32;7.40;;;;;;;;;;5052299;28;20481;-48
2024/03/14 01:51:12;;;;;;;21.05;7.93;;;;;;;;;;5056412;28;20832;-48
2024/03/14 01:53:38;;;;;;;12.77;7.35;;;;;;;;;;5064381;28;20035;-50
2024/03/14 01:56:04;;;;;;;11.65;6.70;;;;;;;;;;5044449;28;20028;-50
2024/03/14 01:58:29;;;;;;;11.65;7.10;;;;;;;;;;5045098;28;20573;-50
2024/03/14 02:00:55;;;;;;;13.73;6.68;;;;;;;;;;5062199;28;20024;-52
2024/03/14 02:03:21;;;;;;;9.57;5.65;;;;;;;;;;5064441;28;20481;-51
2024/03/14 02:05:51;;;;;;;10.15;6.10;;;;;;;;;;5055336;28;20081;-50
2024/03/14 02:08:17;;;;;;;11.05;6.03;;;;;;;;;;5063818;28;20040;-47
2024/03/14 02:10:42;;;;;;;10.02;5.97;;;;;;;;;;5053963;28;20037;-54
2024/03/14 02:13:07;;;;;;;11.63;6.68;;;;;;;;;;5064182;28;20031;-49
2024/03/14 02:15:33;;;;;;;12.48;6.32;;;;;;;;;;5058357;28;20451;-49
2024/03/14 02:17:59;;;;;;;8.85;5.85;;;;;;;;;;5063525;28;20159;-53
2024/03/14 02:20:24;;;;;;;11.18;6.40;;;;;;;;;;5061801;28;20095;-51
2024/03/14 02:22:49;;;;;;;9.43;5.90;;;;;;;;;;5063300;28;20515;-48
2024/03/14 02:25:15;;;;;;;7.38;5.28;;;;;;;;;;5047788;28;20024;-50
2024/03/14 02:27:41;;;;;;;10.38;6.68;;;;;;;;;;5063614;28;20108;-50
2024/03/14 02:30:07;;;;;;;8.38;5.38;;;;;;;;;;5043234;28;20024;-48
2024/03/14 02:32:32;;;;;;;7.40;5.25;;;;;;;;;;5061652;28;20024;-49
2024/03/14 02:34:58;;;;;;;8.65;5.22;;;;;;;;;;5060105;28;20469;-49
2024/03/14 02:37:23;;;;;;;11.77;5.35;;;;;;;;;;5043662;28;20112;-53
2024/03/14 02:39:48;;;;;;;10.15;5.25;;;;;;;;;;5043666;28;20473;-47
2024/03/14 02:42:14;;;;;;;10.27;5.88;;;;;;;;;;5011137;28;20619;-50
2024/03/14 02:44:40;;;;;;;9.73;5.70;;;;;;;;;;5056478;28;20028;-52
2024/03/14 02:47:08;;;;;;;7.22;4.70;;;;;;;;;;5043100;28;20021;-48
2024/03/14 02:49:34;;;;;;;8.55;5.35;;;;;;;;;;5042527;28;20029;-52
2024/03/14 02:52:00;;;;;;;14.38;6.15;;;;;;;;;;5062422;28;20021;-52
2024/03/14 02:54:26;;;;;;;9.00;5.40;;;;;;;;;;5063236;28;20025;-49
2024/03/14 02:56:51;;;;;;;10.90;5.45;;;;;;;;;;5044002;28;20436;-51
2024/03/14 02:59:17;;;;;;;7.97;4.95;;;;;;;;;;5043145;28;20029;-48
2024/03/14 03:01:42;;;;;;;10.02;5.57;;;;;;;;;;5042884;28;20474;-51
2024/03/14 03:04:09;;;;;;;8.07;5.05;;;;;;;;;;5026786;28;20024;-51
2024/03/14 03:06:36;;;;;;;11.10;5.28;;;;;;;;;;5043637;28;20136;-47
2024/03/14 03:09:04;;;;;;;12.52;5.78;;;;;;;;;;5043052;28;20060;-48
2024/03/14 03:11:32;;;;;;;14.07;5.88;;;;;;;;;;5043611;28;20035;-51
2024/03/14 03:13:57;;;;;;;11.57;6.72;;;;;;;;;;5042795;28;20079;-51
2024/03/14 03:16:24;;;;;;;13.65;6.50;;;;;;;;;;5052440;28;20481;-48
2024/03/14 03:18:49;;;;;;;17.23;6.90;;;;;;;;;;5011651;28;20051;-52
2024/03/14 03:21:14;;;;;;;10.05;6.15;;;;;;;;;;5061272;28;20024;-51
2024/03/14 03:23:39;;;;;;;12.65;6.60;;;;;;;;;;5063545;28;20552;-47
2024/03/14 03:26:06;;;;;;;10.85;6.47;;;;;;;;;;5060886;28;20051;-51
2024/03/14 03:28:31;;;;;;;11.10;6.80;;;;;;;;;;5046706;28;20040;-50
2024/03/14 03:30:57;;;;;;;11.60;6.80;;;;;;;;;;5052995;28;20465;-49
2024/03/14 03:33:23;;;;;;;11.95;7.07;;;;;;;;;;5046920;28;20029;-51
2024/03/14 03:35:48;;;;;;;13.45;6.72;;;;;;;;;;5041826;28;20079;-49
2024/03/14 03:38:14;;;;;;;15.88;8.52;;;;;;;;;;5042862;28;20037;-49
2024/03/14 03:40:39;;;;;;;15.60;9.68;;;;;;;;;;5045006;28;20481;-52
2024/03/14 03:43:05;;;;;;;22.63;11.90;;;;;;;;;;5043271;28;20025;-52
2024/03/14 03:45:30;;;;;;;24.40;14.07;;;;;;;;;;5049264;28;20082;-48
2024/03/14 03:47:56;;;;;;;26.27;15.32;;;;;;;;;;5010626;28;20128;-48
2024/03/14 03:50:23;;;;;;;31.77;15.35;;;;;;;;;;5060861;28;20013;-49
2024/03/14 03:52:49;;;;;;;31.77;15.45;;;;;;;;;;5044543;28;20597;-50
2024/03/14 03:55:16;;;;;;;31.00;15.95;;;;;;;;;;5049405;28;20047;-53
2024/03/14 03:57:43;;;;;;;35.63;16.73;;;;;;;;;;5042704;28;20032;-52
2024/03/14 04:00:32;;;;;;;33.92;16.60;;;;;;;;;;5042685;28;20058;-49
2024/03/14 04:02:54;;;;;;;31.10;16.10;;;;;;;;;;5042568;28;20029;-52
2024/03/14 04:05:20;;;;;;;34.92;17.65;;;;;;;;;;5047508;28;20107;-52
2024/03/14 04:07:45;;;;;;;37.80;18.73;;;;;;;;;;5062084;28;20209;-48
2024/03/14 04:10:11;;;;;;;37.42;16.98;;;;;;;;;;5060458;28;20028;-48
2024/03/14 04:12:37;;;;;;;33.20;17.95;;;;;;;;;;5053876;28;20427;-48
2024/03/14 04:15:02;;;;;;;34.40;17.80;;;;;;;;;;5045177;28;20023;-49
2024/03/14 04:17:27;;;;;;;42.83;19.10;;;;;;;;;;5049593;28;20025;-50
2024/03/14 04:19:53;;;;;;;43.65;20.35;;;;;;;;;;5058593;28;20095;-50
2024/03/14 04:22:19;;;;;;;37.60;18.65;;;;;;;;;;5062572;28;20457;-50
2024/03/14 04:24:45;;;;;;;44.25;19.67;;;;;;;;;;5060157;28;20029;-51
2024/03/14 04:27:10;;;;;;;39.35;19.45;;;;;;;;;;5063667;28;20126;-52
2024/03/14 04:29:35;;;;;;;39.90;20.33;;;;;;;;;;5045049;28;20492;-49
2024/03/14 04:32:01;;;;;;;41.55;21.42;;;;;;;;;;5065409;28;20092;-48
2024/03/14 04:34:28;;;;;;;45.38;21.13;;;;;;;;;;5046365;28;20450;-47
2024/03/14 04:36:53;;;;;;;44.40;20.42;;;;;;;;;;5046186;28;20124;-51
2024/03/14 04:39:23;;;;;;;41.83;20.85;;;;;;;;;;5045746;28;20536;-49
2024/03/14 04:41:49;;;;;;;44.35;21.35;;;;;;;;;;5059778;28;20453;-52
2024/03/14 04:44:15;;;;;;;41.75;20.92;;;;;;;;;;5064859;28;20021;-51
2024/03/14 04:46:41;;;;;;;43.97;21.50;;;;;;;;;;5062509;28;20481;-51
2024/03/14 04:49:10;;;;;;;51.05;22.55;;;;;;;;;;5065865;28;20127;-54
2024/03/14 04:51:36;;;;;;;42.33;21.30;;;;;;;;;;5061944;28;20017;-48
2024/03/14 04:54:02;;;;;;;41.65;20.58;;;;;;;;;;5065501;28;20035;-50
2024/03/14 04:56:30;;;;;;;40.47;20.52;;;;;;;;;;5063986;28;20032;-51
2024/03/14 04:58:56;;;;;;;43.30;20.65;;;;;;;;;;5065172;28;20029;-51
2024/03/14 05:01:21;;;;;;;40.60;20.15;;;;;;;;;;5063325;28;20106;-47
2024/03/14 05:03:47;;;;;;;39.88;19.17;;;;;;;;;;5029517;28;20701;-48
2024/03/14 05:06:13;;;;;;;41.38;20.75;;;;;;;;;;5052032;28;20046;-53
2024/03/14 05:08:38;;;;;;;42.22;20.17;;;;;;;;;;5046247;28;20037;-50
2024/03/14 05:11:04;;;;;;;37.50;18.95;;;;;;;;;;5056236;28;20035;-51
2024/03/14 05:13:29;;;;;;;41.03;19.83;;;;;;;;;;5048828;28;20021;-50
2024/03/14 05:15:55;;;;;;;37.03;18.58;;;;;;;;;;5048008;28;20033;-48
2024/03/14 05:18:21;;;;;;;32.97;16.75;;;;;;;;;;5045754;28;20682;-50
2024/03/14 05:20:47;;;;;;;35.95;17.67;;;;;;;;;;5053863;28;20092;-48
2024/03/14 05:23:12;;;;;;;43.30;19.90;;;;;;;;;;5065435;28;20455;-50
2024/03/14 05:25:37;;;;;;;36.92;19.20;;;;;;;;;;5063205;28;20028;-49
2024/03/14 05:28:02;;;;;;;38.08;18.70;;;;;;;;;;5065398;28;20449;-47
2024/03/14 05:30:28;;;;;;;42.83;18.85;;;;;;;;;;5055177;28;20330;-50
2024/03/14 05:32:53;;;;;;;43.60;19.38;;;;;;;;;;5044563;28;20037;-53
2024/03/14 05:35:18;;;;;;;34.20;17.88;;;;;;;;;;5045500;28;20063;-48
2024/03/14 05:37:44;;;;;;;37.85;17.30;;;;;;;;;;4992609;28;20108;-53
2024/03/14 05:40:10;;;;;;;36.75;17.75;;;;;;;;;;5044692;28;20077;-49
2024/03/14 05:42:35;;;;;;;37.58;18.17;;;;;;;;;;5058798;28;20116;-52
2024/03/14 05:45:01;;;;;;;35.10;17.52;;;;;;;;;;5047174;28;20445;-51
2024/03/14 05:47:27;;;;;;;33.35;18.63;;;;;;;;;;5064375;28;20461;-50
2024/03/14 05:49:52;;;;;;;34.42;16.15;;;;;;;;;;5061380;28;20131;-51
2024/03/14 05:52:18;;;;;;;33.17;17.85;;;;;;;;;;5043655;28;20029;-50
2024/03/14 05:54:44;;;;;;;41.30;17.80;;;;;;;;;;4992396;28;20124;-50
2024/03/14 05:57:09;;;;;;;38.40;17.98;;;;;;;;;;5046610;28;20100;-51
2024/03/14 05:59:37;;;;;;;36.22;17.58;;;;;;;;;;5063485;28;20111;-48
2024/03/14 06:02:03;;;;;;;37.35;17.50;;;;;;;;;;5064366;28;20016;-50
2024/03/14 06:04:29;;;;;;;34.95;17.58;;;;;;;;;;5064420;28;20515;-52
2024/03/14 06:06:55;;;;;;;35.53;17.63;;;;;;;;;;5042112;28;20048;-53
2024/03/14 06:09:31;;;;;;;39.05;18.80;;;;;;;;;;5043874;28;20086;-51
2024/03/14 06:11:57;;;;;;;39.78;17.90;;;;;;;;;;5055188;28;20148;-46
2024/03/14 06:14:23;;;;;;;40.95;17.77;;;;;;;;;;5049973;28;20117;-52
2024/03/14 06:16:49;;;;;;;41.80;18.42;;;;;;;;;;5044683;28;20017;-51
2024/03/14 06:19:14;;;;;;;31.40;17.38;;;;;;;;;;5047982;28;20021;-50
2024/03/14 06:21:45;;;;;;;35.83;17.40;;;;;;;;;;5061759;28;20115;-49
2024/03/14 06:24:10;;;;;;;40.30;16.17;;;;;;;;;;5028245;28;20448;-50
2024/03/14 06:26:39;;;;;;;29.63;15.02;;;;;;;;;;5061926;28;20034;-50
2024/03/14 06:29:04;;;;;;;35.08;17.67;;;;;;;;;;5062148;28;20064;-45
2024/03/14 06:31:30;;;;;;;46.90;18.48;;;;;;;;;;5059882;28;20068;-49
2024/03/14 06:33:56;;;;;;;33.53;16.30;;;;;;;;;;5063859;28;20455;-51
2024/03/14 06:36:21;;;;;;;33.22;16.40;;;;;;;;;;5044608;28;20545;-51
2024/03/14 06:38:47;;;;;;;33.75;18.08;;;;;;;;;;5048152;28;20122;-46
2024/03/14 06:41:13;;;;;;;30.20;15.50;;;;;;;;;;5055601;28;20039;-49
2024/03/14 06:43:42;;;;;;;40.78;18.60;;;;;;;;;;5058776;28;20485;-47
2024/03/14 06:46:08;;;;;;;39.20;17.60;;;;;;;;;;4999569;28;20119;-50
2024/03/14 06:48:33;;;;;;;32.95;17.23;;;;;;;;;;4997483;28;20089;-50
2024/03/14 06:50:59;;;;;;;42.22;19.65;;;;;;;;;;4999307;28;20065;-51
2024/03/14 06:53:25;;;;;;;39.15;18.55;;;;;;;;;;5001653;28;20021;-50
2024/03/14 06:55:51;;;;;;;38.75;18.25;;;;;;;;;;4999597;28;20036;-51
2024/03/14 06:58:16;;;;;;;32.78;17.10;;;;;;;;;;5001299;28;20034;-52
2024/03/14 07:00:42;;;;;;;33.42;16.75;;;;;;;;;;4992860;28;20038;-47
2024/03/14 07:03:07;;;;;;;33.03;16.70;;;;;;;;;;4986954;28;20032;-47
2024/03/14 07:05:33;;;;;;;38.17;18.40;;;;;;;;;;4976495;28;20361;-47
2024/03/14 07:07:58;;;;;;;36.72;17.30;;;;;;;;;;4984983;28;20180;-49
2024/03/14 07:10:24;;;;;;;33.97;17.17;;;;;;;;;;4972640;28;20041;-46
2024/03/14 07:12:50;;;;;;;32.55;18.02;;;;;;;;;;4989527;28;20048;-50
2024/03/14 07:15:17;;;;;;;35.70;17.95;;;;;;;;;;4997457;28;20089;-50
2024/03/14 07:17:43;;;;;;;33.13;16.77;;;;;;;;;;5032171;28;20295;-48
2024/03/14 07:20:18;;;;;;;31.25;17.08;;;;;;;;;;5045483;28;20025;-49
2024/03/14 07:22:43;;;;;;;31.95;17.85;;;;;;;;;;5049666;28;20028;-49
2024/03/14 07:25:09;;;;;;;37.85;17.88;;;;;;;;;;5040756;28;20017;-50
2024/03/14 07:27:34;;;;;;;30.48;17.23;;;;;;;;;;5044385;28;20025;-48
2024/03/14 07:30:01;;;;;;;32.88;17.67;;;;;;;;;;5042793;28;20025;-48
2024/03/14 07:32:28;;;;;;;37.67;17.38;;;;;;;;;;5044205;28;20067;-50
2024/03/14 07:34:55;;;;;;;33.67;18.73;;;;;;;;;;5043637;28;20045;-50
2024/03/14 07:37:23;;;;;;;36.78;18.60;;;;;;;;;;5049157;28;20059;-45
2024/03/14 07:39:52;;;;;;;33.42;18.02;;;;;;;;;;5048518;28;20022;-47
2024/03/14 07:42:20;;;;;;;39.58;18.10;;;;;;;;;;5047288;28;20028;-49
2024/03/14 07:44:45;;;;;;;31.13;16.40;;;;;;;;;;5041105;28;20040;-47
2024/03/14 07:47:19;;;;;;;34.17;17.70;;;;;;;;;;5051214;28;20044;-47
2024/03/14 07:49:45;;;;;;;36.47;18.73;;;;;;;;;;5054767;28;20514;-47
2024/03/14 07:52:10;;;;;;;33.40;17.35;;;;;;;;;;5047498;28;20017;-48
2024/03/14 07:54:36;;;;;;;36.60;17.42;;;;;;;;;;5019911;28;20060;-47
2024/03/14 07:57:03;;;;;;;38.05;19.58;;;;;;;;;;5049948;28;20049;-47
2024/03/14 07:59:28;;;;;;;34.72;17.75;;;;;;;;;;5045329;28;20083;-48
2024/03/14 08:01:54;;;;;;;33.33;18.60;;;;;;;;;;5042697;28;20493;-49
2024/03/14 08:04:23;;;;;;;34.65;16.65;;;;;;;;;;5049972;28;20461;-48
2024/03/14 08:06:49;;;;;;;33.22;16.40;;;;;;;;;;5053541;28;20076;-47
2024/03/14 08:09:14;;;;;;;35.90;17.85;;;;;;;;;;5044641;28;20722;-51
2024/03/14 08:11:41;;;;;;;41.25;18.98;;;;;;;;;;5048333;28;20438;-51
2024/03/14 08:14:06;;;;;;;40.78;19.38;;;;;;;;;;5049361;28;20024;-47
2024/03/14 08:16:32;;;;;;;42.33;19.50;;;;;;;;;;5045951;28;20029;-46
2024/03/14 08:18:57;;;;;;;33.53;19.17;;;;;;;;;;5046840;28;20029;-49
2024/03/14 08:21:22;;;;;;;38.92;19.23;;;;;;;;;;5055257;28;20024;-45
2024/03/14 08:23:48;;;;;;;36.80;18.95;;;;;;;;;;5045397;28;20486;-48
2024/03/14 08:26:13;;;;;;;37.08;17.25;;;;;;;;;;5054563;28;20056;-47
2024/03/14 08:28:41;;;;;;;33.75;18.48;;;;;;;;;;5053752;28;20025;-50
2024/03/14 08:31:16;;;;;;;35.50;17.83;;;;;;;;;;5046234;28;20501;-48
2024/03/14 08:33:44;;;;;;;29.50;17.70;;;;;;;;;;5041341;28;20031;-48
2024/03/14 08:36:09;;;;;;;32.72;17.05;;;;;;;;;;5059551;28;20032;-47
2024/03/14 08:38:34;;;;;;;33.42;17.05;;;;;;;;;;5045926;28;20396;-48
2024/03/14 08:40:59;;;;;;;36.38;17.77;;;;;;;;;;5013133;28;20044;-47
2024/03/14 08:43:25;;;;;;;34.75;17.48;;;;;;;;;;5036027;28;20699;-47
2024/03/14 08:45:53;;;;;;;33.10;17.90;;;;;;;;;;5043729;28;20029;-48
2024/03/14 08:48:21;;;;;;;32.80;17.25;;;;;;;;;;5046956;28;20086;-48
2024/03/14 08:50:47;;;;;;;36.38;16.77;;;;;;;;;;5048924;28;20040;-48
2024/03/14 08:53:12;;;;;;;32.35;17.52;;;;;;;;;;5044439;28;20462;-47
2024/03/14 08:58:33;;;;;;;35.83;18.65;;;;;;;;;;5006963;28;20046;-47
2024/03/14 09:00:59;;;;;;;35.80;18.23;;;;;;;;;;5015154;28;20030;-47
2024/03/14 09:03:24;;;;;;;35.97;20.30;;;;;;;;;;5014194;28;20033;-49
2024/03/14 09:05:50;;;;;;;36.75;19.40;;;;;;;;;;4977561;28;20045;-47
2024/03/14 09:08:18;;;;;;;37.28;20.75;;;;;;;;;;5006762;28;20034;-50
2024/03/14 09:10:44;;;;;;;143.52;32.80;;;;;;;;;;4995135;28;20038;-49
2024/03/14 09:13:09;;;;;;;262.85;32.70;;;;;;;;;;5005508;28;20481;-45
2024/03/14 09:15:35;;;;;;;52.95;24.35;;;;;;;;;;5000750;28;20025;-51
2024/03/14 09:18:00;;;;;;;39.35;19.35;;;;;;;;;;5001249;28;20041;-49
2024/03/14 09:20:27;;;;;;;35.53;20.00;;;;;;;;;;5015787;28;20030;-47
2024/03/14 09:22:55;;;;;;;37.38;20.00;;;;;;;;;;5001168;28;20128;-50
2024/03/14 09:25:21;;;;;;;39.42;20.05;;;;;;;;;;5011577;28;20052;-50
2024/03/14 09:27:47;;;;;;;35.30;19.05;;;;;;;;;;5015788;28;20037;-50
2024/03/14 09:30:12;;;;;;;36.50;20.35;;;;;;;;;;5006642;28;20033;-51
2024/03/14 09:32:40;;;;;;;35.47;18.60;;;;;;;;;;5018151;28;20033;-51
2024/03/14 09:35:06;;;;;;;33.65;17.92;;;;;;;;;;5033068;28;20025;-50
2024/03/14 09:37:32;;;;;;;40.10;20.40;;;;;;;;;;5060645;28;20421;-49
2024/03/14 09:39:58;;;;;;;31.88;18.30;;;;;;;;;;5044444;28;20028;-50
2024/03/14 09:42:25;;;;;;;33.60;19.05;;;;;;;;;;5044439;28;20031;-49
2024/03/14 09:44:50;;;;;;;31.70;17.98;;;;;;;;;;5045174;28;20601;-48
2024/03/14 09:47:20;;;;;;;30.85;17.77;;;;;;;;;;5030861;28;20814;-49
2024/03/14 09:49:51;;;;;;;39.53;19.27;;;;;;;;;;5049014;28;20048;-50
2024/03/14 09:52:17;;;;;;;35.67;19.63;;;;;;;;;;5053349;28;20036;-48
2024/03/14 09:54:42;;;;;;;37.13;19.08;;;;;;;;;;5045544;28;20032;-50
2024/03/14 09:57:07;;;;;;;32.28;18.10;;;;;;;;;;5039619;28;20017;-51
2024/03/14 09:59:33;;;;;;;34.50;18.70;;;;;;;;;;5044666;28;20123;-48
2024/03/14 10:01:58;;;;;;;37.50;18.00;;;;;;;;;;5042716;28;20470;-53
2024/03/14 10:04:23;;;;;;;36.33;18.27;;;;;;;;;;5046643;28;20444;-48
2024/03/14 10:06:49;;;;;;;33.05;17.52;;;;;;;;;;5007868;28;20053;-51
2024/03/14 10:09:22;;;;;;;32.20;17.38;;;;;;;;;;5017705;28;20470;-50
2024/03/14 10:11:47;;;;;;;35.28;18.48;;;;;;;;;;5009001;28;20449;-50
2024/03/14 10:14:22;;;;;;;27.48;16.38;;;;;;;;;;5010626;28;20030;-48
2024/03/14 10:16:47;;;;;;;31.42;17.00;;;;;;;;;;5013787;28;20013;-51
2024/03/14 10:19:12;;;;;;;29.80;17.17;;;;;;;;;;5005346;28;20529;-51
2024/03/14 10:21:38;;;;;;;32.33;15.75;;;;;;;;;;5017973;28;20026;-48
2024/03/14 10:24:09;;;;;;;29.05;15.88;;;;;;;;;;5006717;28;20018;-48
2024/03/14 10:26:34;;;;;;;24.92;15.07;;;;;;;;;;5009110;28;20022;-49
2024/03/14 10:29:01;;;;;;;21.98;13.52;;;;;;;;;;5007914;28;20049;-53
2024/03/14 10:31:26;;;;;;;19.58;11.45;;;;;;;;;;5001809;28;20037;-55
2024/03/14 10:33:53;;;;;;;19.23;12.40;;;;;;;;;;5000774;28;20030;-52
2024/03/14 10:36:19;;;;;;;23.55;12.50;;;;;;;;;;5015919;28;20025;-50
2024/03/14 10:38:45;;;;;;;21.83;11.88;;;;;;;;;;5017368;28;20025;-50
2024/03/14 10:41:13;;;;;;;18.05;10.68;;;;;;;;;;5008667;28;20088;-47
2024/03/14 10:43:41;;;;;;;19.10;10.73;;;;;;;;;;5007284;28;20037;-47
2024/03/14 10:46:12;;;;;;;17.73;10.85;;;;;;;;;;5013000;28;20029;-49
2024/03/14 10:48:44;;;;;;;15.77;8.73;;;;;;;;;;5003745;28;20057;-51
2024/03/14 10:51:11;;;;;;;11.40;8.18;;;;;;;;;;4998529;28;20037;-47
2024/03/14 10:53:37;;;;;;;12.02;7.15;;;;;;;;;;5022628;28;20156;-50
2024/03/14 10:56:02;;;;;;;13.20;7.60;;;;;;;;;;5018074;28;20105;-50
2024/03/14 10:58:29;;;;;;;14.68;8.30;;;;;;;;;;5008221;28;20030;-48
2024/03/14 11:00:55;;;;;;;15.35;8.82;;;;;;;;;;5013228;28;20501;-50
2024/03/14 11:03:22;;;;;;;13.90;8.40;;;;;;;;;;5024122;28;20417;-48
2024/03/14 11:05:50;;;;;;;15.55;9.35;;;;;;;;;;5023956;28;20635;-47
2024/03/14 11:08:17;;;;;;;17.52;9.95;;;;;;;;;;5063678;28;20291;-49
2024/03/14 11:10:43;;;;;;;16.80;9.52;;;;;;;;;;5050609;28;20040;-49
2024/03/14 11:13:14;;;;;;;13.75;8.57;;;;;;;;;;5046530;28;20039;-52
2024/03/14 11:15:40;;;;;;;15.55;8.80;;;;;;;;;;5047565;28;20036;-50
2024/03/14 11:18:13;;;;;;;13.52;8.50;;;;;;;;;;5045049;28;20036;-52
2024/03/14 11:20:40;;;;;;;14.63;8.50;;;;;;;;;;5042677;28;20365;-53
2024/03/14 11:23:10;;;;;;;16.80;9.40;;;;;;;;;;5047554;28;20468;-52
2024/03/14 11:25:36;;;;;;;13.25;8.55;;;;;;;;;;5053612;28;20105;-47
2024/03/14 11:28:03;;;;;;;15.73;8.05;;;;;;;;;;5046481;28;20032;-51
2024/03/14 11:30:28;;;;;;;12.70;7.03;;;;;;;;;;5039890;28;20432;-50
2024/03/14 11:32:56;;;;;;;13.65;7.00;;;;;;;;;;5044300;28;20032;-53
2024/03/14 11:35:28;;;;;;;12.57;7.32;;;;;;;;;;5047679;28;20039;-52
2024/03/14 11:37:53;;;;;;;13.95;7.93;;;;;;;;;;5044944;28;20021;-51
2024/03/14 11:40:20;;;;;;;10.35;6.68;;;;;;;;;;5011704;28;20045;-50
2024/03/14 11:42:51;;;;;;;10.18;5.78;;;;;;;;;;5067726;28;20489;-47
2024/03/14 11:45:17;;;;;;;9.93;6.53;;;;;;;;;;5061403;28;20021;-47
2024/03/14 11:47:42;;;;;;;13.88;7.90;;;;;;;;;;5047420;28;20465;-51
2024/03/14 11:50:13;;;;;;;10.25;6.28;;;;;;;;;;5063355;28;20469;-49
2024/03/14 11:52:40;;;;;;;12.57;7.30;;;;;;;;;;5054162;28;20029;-52
2024/03/14 11:55:07;;;;;;;12.98;7.38;;;;;;;;;;5055244;28;20166;-51
2024/03/14 11:57:33;;;;;;;12.88;8.18;;;;;;;;;;5049251;28;20025;-50
2024/03/14 12:00:08;;;;;;;17.00;8.10;;;;;;;;;;5037685;28;20029;-47
2024/03/14 12:02:33;;;;;;;15.60;8.18;;;;;;;;;;5029264;28;20282;-49
2024/03/14 12:05:02;;;;;;;18.63;8.70;;;;;;;;;;5048778;28;20481;-50
2024/03/14 12:07:29;;;;;;;13.35;9.20;;;;;;;;;;5065997;28;20394;-51
2024/03/14 12:09:55;;;;;;;16.23;9.40;;;;;;;;;;5063466;28;20037;-52
2024/03/14 12:12:20;;;;;;;16.63;9.15;;;;;;;;;;5046045;28;20512;-51
2024/03/14 12:14:46;;;;;;;15.80;9.73;;;;;;;;;;5064823;28;20029;-50
2024/03/14 12:17:17;;;;;;;13.50;8.43;;;;;;;;;;5066848;28;20024;-49
2024/03/14 12:19:43;;;;;;;17.27;9.93;;;;;;;;;;5050143;28;20412;-51
2024/03/14 12:22:08;;;;;;;18.73;8.95;;;;;;;;;;5047607;28;20028;-48
2024/03/14 12:24:34;;;;;;;14.37;8.47;;;;;;;;;;5001605;28;20029;-50
2024/03/14 12:27:00;;;;;;;15.25;8.30;;;;;;;;;;5066535;28;20601;-52
2024/03/14 12:29:25;;;;;;;15.25;8.02;;;;;;;;;;5066314;28;20024;-50
2024/03/14 12:31:51;;;;;;;13.68;7.90;;;;;;;;;;5062963;28;20392;-51
2024/03/14 12:34:16;;;;;;;15.88;8.48;;;;;;;;;;5066463;28;20012;-48
2024/03/14 12:36:44;;;;;;;15.57;8.77;;;;;;;;;;5064276;28;20024;-50
2024/03/14 12:39:11;;;;;;;12.82;7.28;;;;;;;;;;5063799;28;20033;-49
2024/03/14 12:41:36;;;;;;;12.15;7.63;;;;;;;;;;5057541;28;20114;-48
2024/03/14 12:44:03;;;;;;;14.55;8.55;;;;;;;;;;5046051;28;20485;-50
2024/03/14 12:46:29;;;;;;;15.38;8.48;;;;;;;;;;5046542;28;20051;-49
2024/03/14 12:48:55;;;;;;;15.38;8.30;;;;;;;;;;5046998;28;20024;-51
2024/03/14 12:51:24;;;;;;;9.55;6.35;;;;;;;;;;5059626;28;21126;-51
2024/03/14 12:53:56;;;;;;;13.65;7.43;;;;;;;;;;5039573;28;20059;-53
2024/03/14 12:56:22;;;;;;;11.45;7.45;;;;;;;;;;5052251;28;20123;-50
2024/03/14 12:58:51;;;;;;;16.30;7.43;;;;;;;;;;5043530;28;20155;-51
2024/03/14 13:01:17;;;;;;;14.80;8.48;;;;;;;;;;5050977;28;20021;-45
2024/03/14 13:03:43;;;;;;;14.02;8.57;;;;;;;;;;5050700;28;20083;-49
2024/03/14 13:06:09;;;;;;;12.45;8.32;;;;;;;;;;5046830;28;20060;-48
2024/03/14 13:08:34;;;;;;;14.00;8.30;;;;;;;;;;5054050;28;20746;-49
2024/03/14 13:11:09;;;;;;;13.65;8.60;;;;;;;;;;5048306;28;20071;-52
2024/03/14 13:13:37;;;;;;;15.38;9.02;;;;;;;;;;5049570;28;20025;-50
2024/03/14 13:16:29;;;;;;;19.35;9.02;;;;;;;;;;5043818;28;20417;-48
2024/03/14 13:18:55;;;;;;;17.73;9.68;;;;;;;;;;5044658;28;20112;-50
2024/03/14 13:21:25;;;;;;;17.90;10.48;;;;;;;;;;5047585;28;20103;-51
2024/03/14 13:23:51;;;;;;;21.17;10.43;;;;;;;;;;5048227;28;20649;-49
2024/03/14 13:26:17;;;;;;;15.75;9.07;;;;;;;;;;5050136;28;20036;-49
2024/03/14 13:28:43;;;;;;;19.33;10.52;;;;;;;;;;5051614;28;20033;-52
2024/03/14 13:31:08;;;;;;;17.50;9.73;;;;;;;;;;5043173;28;22033;-48
2024/03/14 13:33:37;;;;;;;18.05;10.07;;;;;;;;;;5053585;28;20017;-47
2024/03/14 13:36:03;;;;;;;17.87;9.77;;;;;;;;;;5054504;28;20443;-51
2024/03/14 13:38:30;;;;;;;23.02;11.35;;;;;;;;;;5029791;28;20012;-49
2024/03/14 13:40:57;;;;;;;16.48;8.98;;;;;;;;;;5051750;28;20024;-50
2024/03/14 13:43:22;;;;;;;17.08;10.38;;;;;;;;;;5043924;28;20057;-48
2024/03/14 13:45:48;;;;;;;19.77;10.05;;;;;;;;;;5047410;28;20063;-52
2024/03/14 13:48:17;;;;;;;20.50;11.10;;;;;;;;;;5050114;28;20543;-47
2024/03/14 13:50:44;;;;;;;22.58;12.45;;;;;;;;;;5047242;28;20477;-46
2024/03/14 13:53:09;;;;;;;20.08;10.32;;;;;;;;;;5043509;28;20496;-48
2024/03/14 13:55:36;;;;;;;20.45;10.20;;;;;;;;;;5049535;28;20024;-47
2024/03/14 13:58:06;;;;;;;17.35;9.55;;;;;;;;;;5048128;28;20436;-46
2024/03/14 14:00:49;;;;;;;17.98;9.55;;;;;;;;;;5041753;28;20029;-48
2024/03/14 14:03:24;;;;;;;24.52;9.05;;;;;;;;;;5052932;28;20032;-48
2024/03/14 14:05:56;;;;;;;14.77;8.68;;;;;;;;;;5044284;28;20113;-45
2024/03/14 14:08:22;;;;;;;14.05;8.48;;;;;;;;;;5044760;28;20037;-46
2024/03/14 14:10:49;;;;;;;15.55;8.77;;;;;;;;;;5050928;28;20024;-46
2024/03/14 14:13:15;;;;;;;19.10;8.75;;;;;;;;;;5050904;28;20052;-48
2024/03/14 14:15:43;;;;;;;18.75;9.77;;;;;;;;;;5044767;28;20040;-45
2024/03/14 14:18:09;;;;;;;16.92;10.20;;;;;;;;;;5042226;28;20477;-48
2024/03/14 14:20:35;;;;;;;18.08;10.20;;;;;;;;;;5040725;28;20473;-47
2024/03/14 14:23:00;;;;;;;20.33;10.52;;;;;;;;;;5053943;28;20115;-49